createdAt,value
2017-03-25T00:00:07.491Z,23.17
2017-03-25T00:01:16.264Z,23.24
2017-03-25T00:02:25.030Z,23.17
2017-03-25T00:03:33.793Z,23.17
2017-03-25T00:04:42.550Z,23.17
2017-03-25T00:05:51.309Z,23.15
2017-03-25T00:07:00.031Z,23.13
2017-03-25T00:08:09.068Z,23.1
2017-03-25T00:09:18.129Z,23.17
2017-03-25T00:10:26.846Z,23.15
2017-03-25T00:11:35.885Z,23.12
2017-03-25T00:12:44.844Z,23.18
2017-03-25T00:13:53.910Z,23.17
2017-03-25T00:15:02.656Z,23.2
2017-03-25T00:16:12.008Z,23.17
2017-03-25T00:17:20.743Z,23.1
2017-03-25T00:18:29.467Z,23.06
2017-03-25T00:19:38.202Z,23.02
2017-03-25T00:20:46.970Z,23.05
2017-03-25T00:21:55.736Z,23.05
2017-03-25T00:23:04.706Z,23
2017-03-25T00:24:13.767Z,23.09
2017-03-25T00:25:22.493Z,23.06
2017-03-25T00:26:31.232Z,23.02
2017-03-25T00:27:40.295Z,22.99
2017-03-25T00:28:49.052Z,23.05
2017-03-25T00:29:57.805Z,23.1
2017-03-25T00:31:06.873Z,23.03
2017-03-25T00:32:15.636Z,22.99
2017-03-25T00:33:24.389Z,23.03
2017-03-25T00:34:33.656Z,23
2017-03-25T00:35:42.422Z,23
2017-03-25T00:36:51.140Z,22.99
2017-03-25T00:37:59.875Z,22.98
2017-03-25T00:39:08.637Z,22.98
2017-03-25T00:40:17.393Z,23
2017-03-25T00:41:26.457Z,22.93
2017-03-25T00:42:35.221Z,23.05
2017-03-25T00:43:43.936Z,22.91
2017-03-25T00:44:52.970Z,22.94
2017-03-25T00:46:01.733Z,22.94
2017-03-25T00:47:10.494Z,22.96
2017-03-25T00:48:19.252Z,22.99
2017-03-25T00:49:28.642Z,22.98
2017-03-25T00:50:37.410Z,22.93
2017-03-25T00:51:46.177Z,22.93
2017-03-25T00:52:54.919Z,23.02
2017-03-25T00:54:03.950Z,22.94
2017-03-25T00:55:13.010Z,22.91
2017-03-25T00:56:22.072Z,22.99
2017-03-25T00:57:31.134Z,23
2017-03-25T00:58:40.198Z,22.98
2017-03-25T00:59:49.303Z,22.87
2017-03-25T01:00:58.338Z,22.99
2017-03-25T01:02:07.413Z,22.9
2017-03-25T01:03:16.177Z,22.9
2017-03-25T01:04:25.248Z,22.85
2017-03-25T01:05:34.012Z,22.81
2017-03-25T01:06:42.766Z,22.87
2017-03-25T01:07:51.837Z,22.88
2017-03-25T01:09:00.602Z,22.87
2017-03-25T01:10:09.661Z,22.87
2017-03-25T01:11:18.433Z,22.8
2017-03-25T01:12:27.191Z,22.84
2017-03-25T01:13:35.949Z,22.81
2017-03-25T01:14:44.700Z,22.78
2017-03-25T01:15:53.457Z,22.9
2017-03-25T01:17:02.221Z,22.83
2017-03-25T01:18:10.936Z,22.76
2017-03-25T01:19:19.968Z,22.78
2017-03-25T01:20:28.843Z,22.8
2017-03-25T01:21:37.882Z,22.8
2017-03-25T01:22:46.847Z,22.81
2017-03-25T01:23:55.914Z,22.78
2017-03-25T01:25:04.975Z,22.76
2017-03-25T01:26:13.739Z,22.8
2017-03-25T01:27:22.540Z,22.72
2017-03-25T01:28:31.300Z,22.68
2017-03-25T01:29:40.059Z,22.8
2017-03-25T01:30:48.820Z,22.68
2017-03-25T01:31:57.892Z,22.68
2017-03-25T01:33:07.191Z,22.7
2017-03-25T01:34:16.216Z,22.72
2017-03-25T01:35:24.943Z,22.7
2017-03-25T01:36:33.969Z,22.7
2017-03-25T01:37:42.658Z,22.75
2017-03-25T01:38:51.386Z,22.75
2017-03-25T01:40:00.147Z,22.69
2017-03-25T01:41:08.907Z,22.76
2017-03-25T01:42:17.667Z,22.68
2017-03-25T01:43:26.826Z,22.65
2017-03-25T01:44:35.900Z,22.73
2017-03-25T01:45:44.665Z,22.72
2017-03-25T01:46:54.027Z,22.76
2017-03-25T01:48:02.780Z,22.69
2017-03-25T01:49:11.546Z,22.7
2017-03-25T01:50:20.308Z,22.7
2017-03-25T01:51:29.072Z,22.68
2017-03-25T01:52:38.135Z,22.66
2017-03-25T01:53:46.855Z,22.66
2017-03-25T01:54:55.936Z,22.7
2017-03-25T01:56:05.006Z,22.7
2017-03-25T01:57:13.772Z,22.7
2017-03-25T01:58:22.531Z,22.76
2017-03-25T01:59:31.282Z,22.75
2017-03-25T02:00:40.004Z,22.7
2017-03-25T02:01:49.328Z,22.62
2017-03-25T02:02:58.084Z,22.69
2017-03-25T02:04:06.795Z,22.68
2017-03-25T02:05:16.176Z,22.72
2017-03-25T02:06:24.940Z,22.7
2017-03-25T02:07:33.705Z,22.69
2017-03-25T02:08:42.422Z,22.66
2017-03-25T02:09:51.464Z,22.68
2017-03-25T02:11:00.196Z,22.68
2017-03-25T02:12:08.891Z,22.63
2017-03-25T02:13:17.888Z,22.68
2017-03-25T02:14:26.682Z,22.69
2017-03-25T02:15:35.939Z,22.7
2017-03-25T02:16:44.660Z,22.63
2017-03-25T02:17:53.698Z,22.62
2017-03-25T02:19:02.463Z,22.6
2017-03-25T02:20:11.534Z,22.6
2017-03-25T02:21:20.586Z,22.63
2017-03-25T02:22:29.658Z,22.62
2017-03-25T02:23:38.412Z,22.62
2017-03-25T02:24:47.173Z,22.55
2017-03-25T02:25:55.941Z,22.6
2017-03-25T02:27:04.697Z,22.62
2017-03-25T02:28:13.412Z,22.55
2017-03-25T02:29:22.154Z,22.63
2017-03-25T02:30:30.926Z,22.63
2017-03-25T02:31:39.998Z,22.53
2017-03-25T02:32:49.234Z,22.55
2017-03-25T02:33:58.569Z,22.55
2017-03-25T02:35:07.648Z,22.54
2017-03-25T02:36:16.721Z,22.55
2017-03-25T02:37:25.448Z,22.59
2017-03-25T02:38:34.224Z,22.53
2017-03-25T02:39:43.287Z,22.6
2017-03-25T02:40:52.044Z,22.57
2017-03-25T02:42:01.110Z,22.55
2017-03-25T02:43:09.866Z,22.54
2017-03-25T02:44:18.630Z,22.54
2017-03-25T02:45:27.691Z,22.51
2017-03-25T02:46:36.750Z,22.53
2017-03-25T02:47:45.512Z,22.54
2017-03-25T02:48:54.229Z,22.51
2017-03-25T02:50:02.958Z,22.5
2017-03-25T02:51:11.719Z,22.54
2017-03-25T02:52:21.392Z,22.54
2017-03-25T02:53:30.461Z,22.55
2017-03-25T02:54:39.225Z,22.54
2017-03-25T02:55:48.648Z,22.51
2017-03-25T02:56:58.023Z,22.54
2017-03-25T02:58:07.400Z,22.51
2017-03-25T02:59:17.078Z,22.45
2017-03-25T03:00:26.757Z,22.5
2017-03-25T03:01:36.442Z,22.5
2017-03-25T03:02:45.519Z,22.54
2017-03-25T03:03:55.212Z,22.44
2017-03-25T03:05:04.582Z,22.54
2017-03-25T03:06:13.344Z,22.48
2017-03-25T03:07:22.719Z,22.51
2017-03-25T03:08:32.017Z,22.45
2017-03-25T03:09:40.757Z,22.5
2017-03-25T03:10:49.823Z,22.45
2017-03-25T03:11:59.192Z,22.51
2017-03-25T03:13:08.252Z,22.45
2017-03-25T03:14:17.925Z,22.5
2017-03-25T03:15:26.685Z,22.45
2017-03-25T03:16:35.482Z,22.44
2017-03-25T03:17:44.545Z,22.45
2017-03-25T03:18:53.582Z,22.47
2017-03-25T03:20:02.627Z,22.44
2017-03-25T03:21:11.393Z,22.48
2017-03-25T03:22:20.463Z,22.41
2017-03-25T03:23:29.541Z,22.48
2017-03-25T03:24:39.210Z,22.45
2017-03-25T03:25:49.452Z,22.47
2017-03-25T03:26:58.182Z,22.41
2017-03-25T03:28:07.252Z,22.47
2017-03-25T03:29:17.232Z,22.43
2017-03-25T03:30:26.192Z,22.38
2017-03-25T03:31:34.950Z,22.36
2017-03-25T03:32:44.363Z,22.44
2017-03-25T03:33:53.444Z,22.38
2017-03-25T03:35:02.497Z,22.35
2017-03-25T03:36:11.258Z,22.41
2017-03-25T03:37:20.026Z,22.36
2017-03-25T03:38:29.397Z,22.39
2017-03-25T03:39:38.462Z,22.39
2017-03-25T03:40:47.530Z,22.35
2017-03-25T03:41:56.300Z,22.43
2017-03-25T03:43:05.982Z,22.41
2017-03-25T03:44:15.050Z,22.45
2017-03-25T03:45:24.389Z,22.39
2017-03-25T03:46:33.387Z,22.33
2017-03-25T03:47:42.732Z,22.38
2017-03-25T03:48:52.725Z,22.39
2017-03-25T03:50:02.115Z,22.39
2017-03-25T03:51:11.204Z,22.39
2017-03-25T03:52:20.296Z,22.41
2017-03-25T03:53:29.395Z,22.38
2017-03-25T03:54:38.189Z,22.38
2017-03-25T03:55:47.907Z,22.38
2017-03-25T03:56:57.004Z,22.35
2017-03-25T03:58:06.434Z,22.36
2017-03-25T03:59:15.221Z,22.35
2017-03-25T04:00:24.317Z,22.38
2017-03-25T04:01:33.413Z,22.41
2017-03-25T04:02:43.131Z,22.43
2017-03-25T04:03:52.237Z,22.41
2017-03-25T04:05:01.947Z,22.3
2017-03-25T04:06:10.702Z,22.41
2017-03-25T04:07:19.782Z,22.3
2017-03-25T04:08:29.141Z,22.28
2017-03-25T04:09:38.827Z,22.38
2017-03-25T04:10:47.933Z,22.32
2017-03-25T04:11:56.727Z,22.28
2017-03-25T04:13:06.140Z,22.39
2017-03-25T04:14:14.937Z,22.38
2017-03-25T04:15:24.340Z,22.3
2017-03-25T04:16:33.751Z,22.39
2017-03-25T04:17:43.461Z,22.3
2017-03-25T04:18:53.174Z,22.39
2017-03-25T04:20:02.587Z,22.26
2017-03-25T04:21:11.980Z,22.26
2017-03-25T04:22:20.764Z,22.25
2017-03-25T04:23:29.858Z,22.29
2017-03-25T04:24:38.913Z,22.26
2017-03-25T04:25:48.618Z,22.23
2017-03-25T04:26:57.701Z,22.26
2017-03-25T04:28:07.063Z,22.28
2017-03-25T04:29:17.053Z,22.25
2017-03-25T04:30:26.493Z,22.28
2017-03-25T04:31:35.581Z,22.3
2017-03-25T04:32:44.653Z,22.29
2017-03-25T04:33:54.634Z,22.29
2017-03-25T04:35:04.290Z,22.3
2017-03-25T04:36:13.400Z,22.18
2017-03-25T04:37:22.202Z,22.25
2017-03-25T04:38:31.840Z,22.22
2017-03-25T04:39:40.933Z,22.29
2017-03-25T04:40:50.326Z,22.15
2017-03-25T04:41:59.414Z,22.25
2017-03-25T04:43:08.820Z,22.17
2017-03-25T04:44:18.433Z,22.15
2017-03-25T04:45:27.843Z,22.2
2017-03-25T04:46:36.623Z,22.23
2017-03-25T04:47:45.724Z,22.15
2017-03-25T04:48:55.440Z,22.22
2017-03-25T04:50:04.794Z,22.15
2017-03-25T04:51:13.559Z,22.17
2017-03-25T04:52:22.952Z,22.22
2017-03-25T04:53:32.310Z,22.2
2017-03-25T04:54:41.642Z,22.22
2017-03-25T04:55:51.023Z,22.13
2017-03-25T04:56:59.802Z,22.23
2017-03-25T04:58:08.895Z,22.14
2017-03-25T04:59:18.307Z,22.15
2017-03-25T05:00:27.889Z,22.14
2017-03-25T05:01:37.262Z,22.17
2017-03-25T05:02:46.362Z,22.17
2017-03-25T05:03:56.084Z,22.17
2017-03-25T05:05:05.490Z,22.15
2017-03-25T05:06:14.884Z,22.13
2017-03-25T05:07:24.899Z,22.23
2017-03-25T05:08:34.711Z,22.18
2017-03-25T05:09:44.087Z,22.22
2017-03-25T05:10:53.801Z,22.15
2017-03-25T05:12:02.578Z,22.28
2017-03-25T05:13:12.236Z,22.25
2017-03-25T05:14:21.906Z,22.23
2017-03-25T05:15:31.911Z,22.2
2017-03-25T05:16:40.629Z,22.28
2017-03-25T05:17:49.701Z,22.25
2017-03-25T05:18:59.698Z,22.23
2017-03-25T05:20:08.790Z,22.23
2017-03-25T05:21:17.878Z,22.29
2017-03-25T05:22:26.979Z,22.2
2017-03-25T05:23:36.700Z,22.25
2017-03-25T05:24:46.721Z,22.18
2017-03-25T05:25:55.817Z,22.26
2017-03-25T05:27:04.598Z,22.26
2017-03-25T05:28:14.010Z,22.29
2017-03-25T05:29:23.208Z,22.26
2017-03-25T05:30:35.646Z,22.26
2017-03-25T05:31:45.009Z,22.3
2017-03-25T05:32:54.413Z,22.29
2017-03-25T05:34:03.510Z,22.28
2017-03-25T05:35:12.622Z,22.3
2017-03-25T05:36:21.715Z,22.39
2017-03-25T05:37:30.777Z,22.44
2017-03-25T05:38:39.841Z,22.35
2017-03-25T05:39:48.919Z,22.43
2017-03-25T05:40:57.678Z,22.38
2017-03-25T05:42:06.782Z,22.41
2017-03-25T05:43:15.876Z,22.39
2017-03-25T05:44:25.632Z,22.45
2017-03-25T05:45:34.690Z,22.41
2017-03-25T05:46:43.444Z,22.44
2017-03-25T05:47:52.502Z,22.45
2017-03-25T05:49:01.877Z,22.45
2017-03-25T05:50:10.722Z,22.43
2017-03-25T05:51:19.813Z,22.43
2017-03-25T05:52:29.202Z,22.51
2017-03-25T05:53:38.321Z,22.51
2017-03-25T05:54:47.723Z,22.54
2017-03-25T05:55:56.810Z,22.55
2017-03-25T05:57:05.907Z,22.5
2017-03-25T05:58:15.937Z,22.51
2017-03-25T05:59:25.196Z,22.62
2017-03-25T06:00:34.267Z,22.62
2017-03-25T06:01:43.017Z,22.6
2017-03-25T06:02:52.399Z,22.63
2017-03-25T06:04:02.112Z,22.68
2017-03-25T06:05:11.529Z,22.68
2017-03-25T06:06:20.922Z,22.65
2017-03-25T06:07:29.969Z,22.73
2017-03-25T06:08:39.355Z,22.7
2017-03-25T06:09:49.346Z,22.7
2017-03-25T06:10:58.611Z,22.75
2017-03-25T06:12:07.897Z,22.7
2017-03-25T06:13:16.661Z,22.7
2017-03-25T06:14:25.763Z,22.66
2017-03-25T06:15:35.141Z,22.78
2017-03-25T06:16:43.938Z,22.73
2017-03-25T06:17:53.348Z,22.7
2017-03-25T06:19:02.771Z,22.68
2017-03-25T06:20:11.874Z,22.76
2017-03-25T06:21:21.586Z,22.69
2017-03-25T06:22:30.646Z,22.76
2017-03-25T06:23:40.338Z,22.76
2017-03-25T06:24:49.441Z,22.81
2017-03-25T06:25:59.110Z,22.81
2017-03-25T06:27:07.862Z,22.76
2017-03-25T06:28:16.957Z,22.83
2017-03-25T06:29:26.328Z,22.9
2017-03-25T06:30:35.299Z,22.88
2017-03-25T06:31:44.085Z,22.88
2017-03-25T06:32:53.486Z,22.96
2017-03-25T06:34:02.570Z,22.91
2017-03-25T06:35:11.996Z,22.93
2017-03-25T06:36:20.789Z,23.02
2017-03-25T06:37:30.149Z,22.98
2017-03-25T06:38:39.091Z,22.99
2017-03-25T06:39:49.393Z,23.03
2017-03-25T06:40:59.157Z,22.99
2017-03-25T06:42:08.256Z,23.03
2017-03-25T06:43:17.340Z,23.03
2017-03-25T06:44:27.066Z,22.99
2017-03-25T06:45:35.853Z,23.06
2017-03-25T06:46:44.639Z,23.05
2017-03-25T06:47:53.693Z,23.17
2017-03-25T06:49:03.263Z,23.13
2017-03-25T06:50:12.358Z,23.17
2017-03-25T06:51:21.765Z,23.21
2017-03-25T06:52:30.503Z,23.18
2017-03-25T06:53:39.580Z,23.25
2017-03-25T06:54:48.977Z,23.36
2017-03-25T06:55:58.054Z,23.39
2017-03-25T06:57:06.859Z,23.43
2017-03-25T06:58:15.956Z,23.43
2017-03-25T06:59:25.328Z,23.41
2017-03-25T07:00:34.695Z,23.41
2017-03-25T07:01:43.478Z,23.55
2017-03-25T07:02:53.184Z,23.56
2017-03-25T07:04:02.265Z,23.59
2017-03-25T07:05:11.326Z,23.56
2017-03-25T07:06:20.399Z,23.66
2017-03-25T07:07:29.489Z,23.66
2017-03-25T07:08:39.202Z,23.74
2017-03-25T07:09:48.589Z,23.78
2017-03-25T07:10:57.380Z,23.78
2017-03-25T07:12:06.852Z,23.87
2017-03-25T07:13:15.591Z,23.83
2017-03-25T07:14:24.655Z,24.03
2017-03-25T07:15:34.015Z,23.93
2017-03-25T07:16:42.777Z,24.02
2017-03-25T07:17:51.865Z,24.05
2017-03-25T07:19:01.282Z,24.16
2017-03-25T07:20:10.383Z,24.28
2017-03-25T07:21:19.488Z,24.32
2017-03-25T07:22:28.920Z,24.36
2017-03-25T07:23:38.340Z,24.48
2017-03-25T07:24:48.344Z,24.54
2017-03-25T07:25:57.068Z,24.68
2017-03-25T07:27:06.133Z,24.69
2017-03-25T07:28:15.240Z,24.65
2017-03-25T07:29:24.300Z,24.78
2017-03-25T07:30:33.326Z,24.95
2017-03-25T07:31:42.083Z,25.03
2017-03-25T07:32:51.485Z,25.04
2017-03-25T07:34:00.864Z,25.21
2017-03-25T07:35:09.623Z,25.31
2017-03-25T07:36:18.750Z,25.36
2017-03-25T07:37:27.541Z,25.43
2017-03-25T07:38:37.213Z,25.53
2017-03-25T07:39:46.638Z,25.51
2017-03-25T07:40:55.412Z,25.63
2017-03-25T07:42:04.504Z,25.7
2017-03-25T07:43:13.601Z,25.73
2017-03-25T07:44:23.013Z,25.95
2017-03-25T07:45:32.424Z,25.96
2017-03-25T07:46:41.215Z,25.95
2017-03-25T07:47:50.315Z,26.06
2017-03-25T07:48:59.733Z,26.19
2017-03-25T07:50:09.148Z,26.19
2017-03-25T07:51:17.931Z,26.28
2017-03-25T07:52:26.981Z,26.31
2017-03-25T07:53:36.359Z,26.37
2017-03-25T07:54:45.455Z,26.36
2017-03-25T07:55:54.550Z,26.4
2017-03-25T07:57:03.964Z,26.43
2017-03-25T07:58:13.671Z,26.41
2017-03-25T07:59:23.079Z,26.4
2017-03-25T08:00:32.180Z,26.47
2017-03-25T08:01:40.941Z,26.44
2017-03-25T08:02:50.343Z,26.4
2017-03-25T08:04:00.055Z,26.51
2017-03-25T08:05:09.173Z,26.44
2017-03-25T08:06:18.593Z,26.43
2017-03-25T08:07:27.659Z,26.44
2017-03-25T08:08:37.039Z,26.36
2017-03-25T08:09:46.153Z,26.45
2017-03-25T08:10:54.900Z,26.36
2017-03-25T08:12:03.968Z,26.38
2017-03-25T08:13:12.757Z,26.37
2017-03-25T08:14:22.468Z,26.37
2017-03-25T08:15:32.538Z,26.44
2017-03-25T08:16:41.593Z,26.4
2017-03-25T08:17:50.954Z,26.33
2017-03-25T08:19:00.065Z,26.36
2017-03-25T08:20:09.157Z,26.28
2017-03-25T08:21:18.218Z,26.36
2017-03-25T08:22:27.291Z,26.36
2017-03-25T08:23:36.357Z,26.31
2017-03-25T08:24:46.350Z,26.34
2017-03-25T08:25:55.433Z,26.36
2017-03-25T08:27:04.519Z,26.33
2017-03-25T08:28:13.616Z,26.33
2017-03-25T08:29:23.021Z,26.34
2017-03-25T08:30:32.114Z,26.34
2017-03-25T08:31:41.524Z,26.37
2017-03-25T08:32:50.924Z,26.37
2017-03-25T08:33:59.745Z,26.53
2017-03-25T08:35:08.534Z,26.45
2017-03-25T08:36:17.319Z,26.44
2017-03-25T08:37:26.390Z,26.43
2017-03-25T08:38:35.500Z,26.53
2017-03-25T08:39:44.285Z,26.56
2017-03-25T08:40:53.027Z,26.65
2017-03-25T08:42:01.784Z,26.56
2017-03-25T08:43:10.777Z,26.68
2017-03-25T08:44:19.874Z,26.65
2017-03-25T08:45:29.287Z,26.6
2017-03-25T08:46:38.991Z,26.63
2017-03-25T08:47:48.386Z,26.74
2017-03-25T08:48:57.783Z,26.66
2017-03-25T08:50:06.629Z,26.68
2017-03-25T08:51:15.474Z,26.78
2017-03-25T08:52:24.236Z,26.77
2017-03-25T08:53:33.029Z,26.8
2017-03-25T08:54:42.119Z,26.81
2017-03-25T08:55:51.537Z,26.8
2017-03-25T08:57:00.331Z,26.83
2017-03-25T08:58:09.126Z,26.89
2017-03-25T08:59:19.143Z,26.85
2017-03-25T09:00:28.242Z,26.85
2017-03-25T09:01:37.660Z,26.96
2017-03-25T09:02:46.461Z,26.96
2017-03-25T09:03:56.174Z,27.02
2017-03-25T09:05:05.239Z,27.08
2017-03-25T09:06:13.978Z,27.02
2017-03-25T09:07:24.439Z,27.08
2017-03-25T09:08:33.205Z,27.1
2017-03-25T09:09:42.871Z,27.15
2017-03-25T09:10:52.251Z,27.26
2017-03-25T09:12:01.347Z,27.35
2017-03-25T09:13:10.451Z,27.42
2017-03-25T09:14:20.136Z,27.51
2017-03-25T09:15:29.209Z,27.52
2017-03-25T09:16:38.610Z,27.77
2017-03-25T09:17:47.718Z,27.93
2017-03-25T09:18:56.811Z,28.19
2017-03-25T09:20:06.522Z,28.51
2017-03-25T09:21:15.619Z,28.85
2017-03-25T09:22:24.411Z,29.27
2017-03-25T09:23:33.813Z,29.65
2017-03-25T09:24:43.530Z,30.09
2017-03-25T09:25:52.281Z,30.59
2017-03-25T09:27:01.852Z,30.78
2017-03-25T09:28:11.227Z,31.14
2017-03-25T09:29:20.601Z,31.44
2017-03-25T09:30:29.353Z,31.89
2017-03-25T09:31:38.429Z,32.18
2017-03-25T09:32:47.521Z,32.43
2017-03-25T09:33:57.851Z,32.6
2017-03-25T09:35:06.653Z,32.73
2017-03-25T09:36:15.721Z,32.97
2017-03-25T09:37:24.704Z,33.02
2017-03-25T09:38:34.382Z,33.15
2017-03-25T09:39:43.775Z,33.42
2017-03-25T09:40:52.587Z,33.4
2017-03-25T09:42:01.383Z,33.46
2017-03-25T09:43:10.837Z,33.68
2017-03-25T09:44:21.169Z,33.76
2017-03-25T09:45:30.272Z,34.05
2017-03-25T09:46:39.069Z,34.24
2017-03-25T09:47:48.165Z,34.48
2017-03-25T09:48:58.193Z,34.64
2017-03-25T09:50:07.315Z,34.85
2017-03-25T09:51:16.112Z,35.1
2017-03-25T09:52:25.526Z,35.27
2017-03-25T09:53:34.888Z,35.49
2017-03-25T09:54:44.303Z,35.71
2017-03-25T09:55:53.102Z,35.88
2017-03-25T09:57:02.513Z,35.97
2017-03-25T09:58:11.510Z,36.12
2017-03-25T09:59:20.574Z,36.24
2017-03-25T10:00:29.957Z,36.23
2017-03-25T10:01:39.064Z,36.43
2017-03-25T10:02:48.181Z,36.58
2017-03-25T10:03:58.518Z,36.68
2017-03-25T10:05:07.270Z,36.84
2017-03-25T10:06:16.041Z,37.02
2017-03-25T10:07:25.146Z,37.01
2017-03-25T10:08:34.762Z,37.1
2017-03-25T10:09:44.750Z,37.14
2017-03-25T10:10:54.133Z,37.18
2017-03-25T10:12:02.929Z,37.33
2017-03-25T10:13:11.699Z,37.4
2017-03-25T10:14:20.803Z,37.63
2017-03-25T10:15:30.061Z,37.56
2017-03-25T10:16:39.163Z,37.68
2017-03-25T10:17:47.951Z,37.75
2017-03-25T10:18:57.678Z,37.86
2017-03-25T10:20:06.789Z,37.89
2017-03-25T10:21:16.192Z,38.01
2017-03-25T10:22:25.294Z,38.09
2017-03-25T10:23:35.263Z,38.24
2017-03-25T10:24:44.969Z,38.34
2017-03-25T10:25:53.774Z,38.55
2017-03-25T10:27:02.849Z,38.61
2017-03-25T10:28:11.955Z,38.67
2017-03-25T10:29:21.062Z,38.91
2017-03-25T10:30:30.222Z,38.89
2017-03-25T10:31:39.931Z,38.95
2017-03-25T10:32:49.355Z,39.02
2017-03-25T10:33:58.468Z,39.11
2017-03-25T10:35:07.563Z,39.15
2017-03-25T10:36:16.965Z,39.19
2017-03-25T10:37:26.030Z,39.3
2017-03-25T10:38:35.404Z,39.46
2017-03-25T10:39:44.813Z,39.37
2017-03-25T10:40:53.909Z,39.49
2017-03-25T10:42:03.001Z,39.48
2017-03-25T10:43:12.847Z,39.48
2017-03-25T10:44:22.986Z,39.48
2017-03-25T10:45:32.056Z,39.48
2017-03-25T10:46:41.179Z,39.52
2017-03-25T10:47:50.350Z,39.62
2017-03-25T10:48:59.694Z,39.71
2017-03-25T10:50:09.371Z,39.68
2017-03-25T10:51:18.435Z,39.75
2017-03-25T10:52:27.208Z,39.77
2017-03-25T10:53:36.301Z,39.78
2017-03-25T10:54:45.609Z,39.96
2017-03-25T10:55:54.406Z,39.87
2017-03-25T10:57:03.195Z,40
2017-03-25T10:58:11.947Z,39.99
2017-03-25T10:59:21.027Z,40.14
2017-03-25T11:00:30.129Z,40.12
2017-03-25T11:01:39.225Z,40.26
2017-03-25T11:02:48.289Z,40.2
2017-03-25T11:03:57.666Z,40.23
2017-03-25T11:05:06.723Z,40.31
2017-03-25T11:06:15.793Z,40.49
2017-03-25T11:07:25.162Z,40.47
2017-03-25T11:08:34.547Z,40.62
2017-03-25T11:09:44.567Z,40.54
2017-03-25T11:10:53.973Z,40.65
2017-03-25T11:12:03.036Z,40.68
2017-03-25T11:13:12.724Z,40.8
2017-03-25T11:14:22.394Z,40.72
2017-03-25T11:15:31.470Z,40.81
2017-03-25T11:16:40.587Z,40.72
2017-03-25T11:17:49.646Z,40.61
2017-03-25T11:18:59.653Z,40.58
2017-03-25T11:20:09.077Z,40.63
2017-03-25T11:21:18.177Z,40.56
2017-03-25T11:22:27.277Z,40.66
2017-03-25T11:23:36.342Z,40.73
2017-03-25T11:24:46.018Z,40.77
2017-03-25T11:25:55.628Z,40.88
2017-03-25T11:27:04.727Z,40.97
2017-03-25T11:28:14.757Z,40.9
2017-03-25T11:29:25.051Z,40.97
2017-03-25T11:30:34.133Z,41.07
2017-03-25T11:31:43.231Z,40.99
2017-03-25T11:32:52.073Z,41.16
2017-03-25T11:34:01.186Z,41.19
2017-03-25T11:35:10.588Z,41.31
2017-03-25T11:36:19.652Z,41.29
2017-03-25T11:37:28.692Z,41.38
2017-03-25T11:38:37.747Z,41.4
2017-03-25T11:39:47.144Z,41.45
2017-03-25T11:40:56.857Z,41.47
2017-03-25T11:42:05.612Z,41.55
2017-03-25T11:43:14.699Z,41.55
2017-03-25T11:44:24.434Z,41.62
2017-03-25T11:45:33.747Z,41.6
2017-03-25T11:46:43.164Z,41.66
2017-03-25T11:47:52.882Z,41.8
2017-03-25T11:49:02.304Z,41.77
2017-03-25T11:50:11.109Z,41.91
2017-03-25T11:51:20.825Z,41.91
2017-03-25T11:52:29.938Z,41.87
2017-03-25T11:53:39.310Z,41.9
2017-03-25T11:54:48.692Z,41.88
2017-03-25T11:55:57.758Z,41.75
2017-03-25T11:57:06.833Z,41.66
2017-03-25T11:58:16.245Z,41.59
2017-03-25T11:59:25.351Z,41.43
2017-03-25T12:00:34.763Z,41.29
2017-03-25T12:01:44.472Z,41.09
2017-03-25T12:02:53.586Z,40.87
2017-03-25T12:04:03.611Z,40.3
2017-03-25T12:05:13.346Z,39.74
2017-03-25T12:06:22.761Z,39.19
2017-03-25T12:07:31.964Z,38.5
2017-03-25T12:08:41.074Z,37.96
2017-03-25T12:09:50.181Z,37.3
2017-03-25T12:10:59.287Z,36.88
2017-03-25T12:12:08.354Z,36.45
2017-03-25T12:13:18.050Z,36.14
2017-03-25T12:14:28.092Z,35.78
2017-03-25T12:15:36.900Z,35.27
2017-03-25T12:16:45.710Z,34.86
2017-03-25T12:17:55.126Z,34.55
2017-03-25T12:19:04.237Z,34.2
2017-03-25T12:20:13.953Z,33.95
2017-03-25T12:21:22.709Z,33.65
2017-03-25T12:22:31.782Z,33.45
2017-03-25T12:23:41.502Z,33.14
2017-03-25T12:24:50.308Z,32.95
2017-03-25T12:25:59.722Z,32.78
2017-03-25T12:27:09.128Z,32.49
2017-03-25T12:28:18.855Z,32.26
2017-03-25T12:29:28.542Z,32.03
2017-03-25T12:30:37.926Z,31.93
2017-03-25T12:31:46.963Z,31.76
2017-03-25T12:32:56.060Z,31.65
2017-03-25T12:34:05.482Z,31.28
2017-03-25T12:35:14.241Z,31.29
2017-03-25T12:36:23.319Z,31.12
2017-03-25T12:37:32.929Z,31.02
2017-03-25T12:38:42.283Z,30.9
2017-03-25T12:39:51.359Z,30.8
2017-03-25T12:41:00.764Z,30.68
2017-03-25T12:42:09.868Z,30.54
2017-03-25T12:43:18.658Z,30.43
2017-03-25T12:44:27.756Z,30.31
2017-03-25T12:45:36.863Z,30.15
2017-03-25T12:46:45.666Z,30
2017-03-25T12:47:55.405Z,29.97
2017-03-25T12:49:04.511Z,29.82
2017-03-25T12:50:13.624Z,29.6
2017-03-25T12:51:22.419Z,29.57
2017-03-25T12:52:31.513Z,29.42
2017-03-25T12:53:40.611Z,29.27
2017-03-25T12:54:50.018Z,29.32
2017-03-25T12:55:59.686Z,29.26
2017-03-25T12:57:08.726Z,29.14
2017-03-25T12:58:18.410Z,29.13
2017-03-25T12:59:28.088Z,29.04
2017-03-25T13:00:37.163Z,28.96
2017-03-25T13:01:46.263Z,28.91
2017-03-25T13:02:55.067Z,28.88
2017-03-25T13:04:04.483Z,28.79
2017-03-25T13:05:13.592Z,28.84
2017-03-25T13:06:22.724Z,28.76
2017-03-25T13:07:31.523Z,28.57
2017-03-25T13:08:40.938Z,28.64
2017-03-25T13:09:50.034Z,28.56
2017-03-25T13:10:59.135Z,28.54
2017-03-25T13:12:08.812Z,28.48
2017-03-25T13:13:17.898Z,28.37
2017-03-25T13:14:27.671Z,28.25
2017-03-25T13:15:37.085Z,28.25
2017-03-25T13:16:46.741Z,28.15
2017-03-25T13:17:55.877Z,28.05
2017-03-25T13:19:04.990Z,27.96
2017-03-25T13:20:14.089Z,27.96
2017-03-25T13:21:23.816Z,27.9
2017-03-25T13:22:32.787Z,27.89
2017-03-25T13:23:41.849Z,27.8
2017-03-25T13:24:51.547Z,27.75
2017-03-25T13:26:00.600Z,27.77
2017-03-25T13:27:09.374Z,27.64
2017-03-25T13:28:18.784Z,27.58
2017-03-25T13:29:28.196Z,27.59
2017-03-25T13:30:37.294Z,27.49
2017-03-25T13:31:46.394Z,27.48
2017-03-25T13:32:55.188Z,27.42
2017-03-25T13:34:04.247Z,27.39
2017-03-25T13:35:13.930Z,27.39
2017-03-25T13:36:22.728Z,27.39
2017-03-25T13:37:31.620Z,27.35
2017-03-25T13:38:41.300Z,27.29
2017-03-25T13:39:50.841Z,27.22
2017-03-25T13:41:00.513Z,27.26
2017-03-25T13:42:09.617Z,27.18
2017-03-25T13:43:18.977Z,27.18
2017-03-25T13:44:28.074Z,27.2
2017-03-25T13:45:37.232Z,27.14
2017-03-25T13:46:46.645Z,27.03
2017-03-25T13:47:56.417Z,27.03
2017-03-25T13:49:05.853Z,27.07
2017-03-25T13:50:15.510Z,27.07
2017-03-25T13:51:24.585Z,27.08
2017-03-25T13:52:33.684Z,27.08
2017-03-25T13:53:42.789Z,27.07
2017-03-25T13:54:52.510Z,27.02
2017-03-25T13:56:01.616Z,26.9
2017-03-25T13:57:10.415Z,26.89
2017-03-25T13:58:20.127Z,26.89
2017-03-25T13:59:29.770Z,26.89
2017-03-25T14:00:38.554Z,26.93
2017-03-25T14:01:47.630Z,26.8
2017-03-25T14:02:57.017Z,26.81
2017-03-25T14:04:06.078Z,26.78
2017-03-25T14:05:15.106Z,26.74
2017-03-25T14:06:23.884Z,26.78
2017-03-25T14:07:32.687Z,26.71
2017-03-25T14:08:42.401Z,26.65
2017-03-25T14:09:51.514Z,26.68
2017-03-25T14:11:00.620Z,26.65
2017-03-25T14:12:09.722Z,26.6
2017-03-25T14:13:18.821Z,26.6
2017-03-25T14:14:27.928Z,26.55
2017-03-25T14:15:36.719Z,26.52
2017-03-25T14:16:45.808Z,26.41
2017-03-25T14:17:54.909Z,26.48
2017-03-25T14:19:04.359Z,26.36
2017-03-25T14:20:14.076Z,26.45
2017-03-25T14:21:23.798Z,26.41
2017-03-25T14:22:32.896Z,26.47
2017-03-25T14:23:42.624Z,26.34
2017-03-25T14:24:52.039Z,26.29
2017-03-25T14:26:01.133Z,26.33
2017-03-25T14:27:09.915Z,26.28
2017-03-25T14:28:19.018Z,26.29
2017-03-25T14:29:27.818Z,26.34
2017-03-25T14:30:37.538Z,26.21
2017-03-25T14:31:46.641Z,26.21
2017-03-25T14:32:55.741Z,26.18
2017-03-25T14:34:04.845Z,26.16
2017-03-25T14:35:14.870Z,26.1
2017-03-25T14:36:23.977Z,26.07
2017-03-25T14:37:32.917Z,26.05
2017-03-25T14:38:42.037Z,26.05
2017-03-25T14:39:51.450Z,26.02
2017-03-25T14:41:00.546Z,25.96
2017-03-25T14:42:09.336Z,25.96
2017-03-25T14:43:18.721Z,25.9
2017-03-25T14:44:27.831Z,25.88
2017-03-25T14:45:36.628Z,25.87
2017-03-25T14:46:45.375Z,25.88
2017-03-25T14:47:54.414Z,25.8
2017-03-25T14:49:03.802Z,25.9
2017-03-25T14:50:13.519Z,25.8
2017-03-25T14:51:22.328Z,25.72
2017-03-25T14:52:31.107Z,25.8
2017-03-25T14:53:40.556Z,25.75
2017-03-25T14:54:50.265Z,25.66